Time;durP1;ratioP1;P1;durP2;ratioP2;P2;SDS_P1;SDS_P2;PMS_P1;PMS_P2;Temp;Humidity;BMP_temperature;BMP_pressure;BME280_temperature;BME280_humidity;BME280_pressure;Samples;Min_cycle;Max_cycle;Signal;HPM_P1;HPM_P2
2023/12/23 00:00:07;;;;;;;12.15;2.53;;;6.70;99.90;;;;;;4981869;28;20077;-72
2023/12/23 00:02:33;;;;;;;13.30;3.30;;;;;;;;;;4982296;28;20048;-72
2023/12/23 00:04:59;;;;;;;6.35;2.20;;;;;;;;;;4982026;28;20078;-73
2023/12/23 00:07:25;;;;;;;16.60;2.75;;;;;;;;;;4986058;28;20056;-73
2023/12/23 00:09:51;;;;;;;15.18;3.35;;;;;;;;;;4985607;28;20041;-73
2023/12/23 00:12:18;;;;;;;10.68;3.35;;;;;;;;;;4985627;28;20592;-72
2023/12/23 00:14:44;;;;;;;12.68;3.10;;;;;;;;;;4974248;28;20057;-72
2023/12/23 00:17:10;;;;;;;7.60;2.35;;;;;;;;;;5003423;28;20046;-72
2023/12/23 00:19:36;;;;;;;13.90;4.05;;;;;;;;;;4985875;28;20041;-73
2023/12/23 00:22:02;;;;;;;12.75;2.42;;;;;;;;;;4986293;28;20740;-72
2023/12/23 00:24:29;;;;;;;11.23;2.60;;;;;;;;;;5003994;28;20127;-72
2023/12/23 00:26:57;;;;;;;9.15;2.40;;;;;;;;;;4985912;28;20065;-72
2023/12/23 00:29:26;;;;;;;14.68;4.82;;;;;;;;;;4985749;28;20169;-72
2023/12/23 00:31:53;;;;;;;12.25;2.80;;;;;;;;;;4985954;28;20409;-72
2023/12/23 00:34:19;;;;;;;13.90;3.85;;;;;;;;;;4986230;28;20137;-72
2023/12/23 00:36:45;;;;;;;15.20;2.63;;;;;;;;;;4985392;28;20050;-72
2023/12/23 00:39:12;;;;;;;15.18;2.25;;;;;;;;;;4969117;28;20049;-72
2023/12/23 00:41:38;;;;;;;16.02;2.67;;;;;;;;;;4985405;28;20054;-73
2023/12/23 00:44:04;;;;;;;15.52;3.05;;;;;;;;;;4985931;28;20050;-72
2023/12/23 00:46:30;;;;;;;20.05;3.95;;;;;;;;;;4985359;28;20561;-72
2023/12/23 00:48:56;;;;;;;9.18;2.05;;;;;;;;;;4985552;28;20517;-73
2023/12/23 00:51:22;;;;;;;18.30;3.08;;;;;;;;;;4985593;28;20133;-72
2023/12/23 00:53:48;;;;;;;17.40;3.10;;;;;;;;;;4986153;28;20125;-72
2023/12/23 00:56:21;;;;;;;18.10;3.25;;;;;;;;;;4985485;28;20564;-72
2023/12/23 00:58:48;;;;;;;22.27;2.75;;;;;;;;;;4986140;28;20038;-73
2023/12/23 01:01:14;;;;;;;12.13;2.63;;;;;;;;;;4969944;28;20133;-72
2023/12/23 01:03:40;;;;;;;15.45;2.47;;;;;;;;;;4985787;28;20064;-72
2023/12/23 01:06:06;;;;;;;11.15;2.58;;;;;;;;;;4969979;28;20062;-72
2023/12/23 01:08:32;;;;;;;14.38;2.95;;;;;;;;;;4986017;28;20049;-73
2023/12/23 01:10:58;;;;;;;11.88;2.22;;;;;;;;;;4985877;28;20049;-72
2023/12/23 01:13:24;;;;;;;19.70;2.72;;;;;;;;;;4985881;28;20505;-72
2023/12/23 01:15:50;;;;;;;12.88;2.65;;;;;;;;;;4985441;28;20062;-73
2023/12/23 01:18:16;;;;;;;19.85;3.72;;;;;;;;;;4985351;28;20049;-72
2023/12/23 01:20:42;;;;;;;9.15;2.25;;;;;;;;;;5002995;28;20053;-72
2023/12/23 01:23:09;;;;;;;14.35;2.97;;;;;;;;;;4985361;28;20046;-72
2023/12/23 01:25:35;;;;;;;26.48;3.95;;;;;;;;;;5000629;28;20053;-73
2023/12/23 01:28:04;;;;;;;11.00;2.47;;;;;;;;;;4968895;28;20046;-72
2023/12/23 01:30:36;;;;;;;14.18;3.63;;;;;;;;;;4978244;28;20085;-72
2023/12/23 01:33:03;;;;;;;12.38;2.83;;;;;;;;;;5000433;28;20116;-73
2023/12/23 01:35:29;;;;;;;9.88;1.88;;;;;;;;;;4968989;28;20138;-72
2023/12/23 01:37:55;;;;;;;14.23;2.95;;;;;;;;;;4984625;28;20076;-72
2023/12/23 01:40:21;;;;;;;9.10;2.20;;;;;;;;;;4978071;28;20046;-72
2023/12/23 01:42:47;;;;;;;14.02;2.10;;;;;;;;;;4965715;28;20796;-72
2023/12/23 01:45:13;;;;;;;7.38;1.92;;;;;;;;;;4984565;28;20508;-73
2023/12/23 01:47:44;;;;;;;13.82;2.35;;;;;;;;;;4981512;28;20788;-72
2023/12/23 01:50:11;;;;;;;11.70;2.47;;;;;;;;;;4982928;28;20050;-72
2023/12/23 01:52:38;;;;;;;11.93;2.13;;;;;;;;;;4981900;28;20038;-72
2023/12/23 01:55:08;;;;;;;9.63;1.88;;;;;;;;;;4978182;28;20505;-72
2023/12/23 01:57:35;;;;;;;11.32;2.10;;;6.10;99.90;;;;;;4984745;28;20034;-72
2023/12/23 02:00:01;;;;;;;16.20;2.83;;;;;;;;;;4985366;28;20637;-72
2023/12/23 02:02:28;;;;;;;11.50;2.10;;;;;;;;;;4985254;28;20049;-72
2023/12/23 02:04:55;;;;;;;7.57;2.03;;;;;;;;;;5003366;28;20603;-72
2023/12/23 02:07:21;;;;;;;11.88;1.98;;;;;;;;;;4978255;28;20050;-72
2023/12/23 02:09:48;;;;;;;9.93;1.85;;;;;;;;;;4985653;28;20037;-72
2023/12/23 02:12:23;;;;;;;13.30;1.98;;;;;;;;;;4968790;28;20053;-73
2023/12/23 02:15:15;;;;;;;11.73;2.00;;;;;;;;;;4971541;28;20057;-72
2023/12/23 02:17:42;;;;;;;10.80;1.83;;;;;;;;;;4978537;28;20596;-72
2023/12/23 02:20:08;;;;;;;8.30;2.10;;;;;;;;;;4987987;28;20165;-72
2023/12/23 02:22:34;;;;;;;8.82;2.30;;;;;;;;;;4987901;28;20048;-72
2023/12/23 02:25:00;;;;;;;5.22;2.10;;;;;;;;;;4987682;28;20065;-72
2023/12/23 02:27:30;;;;;;;6.65;2.65;;;;;;;;;;4987922;28;20056;-72
2023/12/23 02:30:00;;;;;;;11.20;2.50;;;;;;;;;;4987756;28;20065;-73
2023/12/23 02:32:27;;;;;;;13.82;2.20;;;;;;;;;;4987531;28;20069;-72
2023/12/23 02:34:54;;;;;;;10.43;1.80;;;;;;;;;;4987164;28;20092;-72
2023/12/23 02:37:20;;;;;;;7.60;2.25;;;;;;;;;;4987359;28;20046;-72
2023/12/23 02:39:46;;;;;;;11.60;2.00;;;;;;;;;;5005227;28;20046;-72
2023/12/23 02:42:12;;;;;;;13.75;2.00;;;;;;;;;;4987651;28;20034;-71
2023/12/23 02:44:38;;;;;;;7.13;2.50;;;;;;;;;;5005585;28;20050;-72
2023/12/23 02:47:04;;;;;;;14.65;2.20;;;;;;;;;;5002239;28;20043;-72
2023/12/23 02:49:30;;;;;;;7.30;1.80;;;;;;;;;;4984111;28;20709;-72
2023/12/23 02:51:56;;;;;;;8.05;1.80;;;;;;;;;;4987509;28;20145;-72
2023/12/23 02:54:22;;;;;;;9.38;1.98;;;;;;;;;;5005088;28;20050;-72
2023/12/23 02:56:48;;;;;;;8.10;1.65;;;;;;;;;;4987474;28;20497;-72
2023/12/23 02:59:14;;;;;;;15.75;2.88;;;;;;;;;;5004980;28;20131;-72
2023/12/23 03:01:40;;;;;;;16.48;2.42;;;;;;;;;;4987460;28;20050;-72
2023/12/23 03:04:06;;;;;;;10.27;2.05;;;;;;;;;;4970019;28;20038;-72
2023/12/23 03:06:32;;;;;;;9.13;1.70;;;;;;;;;;5002498;28;20041;-72
2023/12/23 03:08:58;;;;;;;11.32;2.35;;;;;;;;;;4971077;28;20504;-72
2023/12/23 03:11:24;;;;;;;10.05;2.00;;;;;;;;;;5004829;28;20119;-72
2023/12/23 03:13:52;;;;;;;5.53;1.50;;;;;;;;;;5004882;28;20126;-72
2023/12/23 03:16:18;;;;;;;7.00;1.85;;;;;;;;;;4999648;28;20162;-72
2023/12/23 03:18:46;;;;;;;8.18;2.10;;;;;;;;;;4983605;28;20128;-72
2023/12/23 03:21:12;;;;;;;7.22;2.00;;;;;;;;;;4987408;28;20104;-72
2023/12/23 03:23:38;;;;;;;12.40;2.25;;;;;;;;;;4970844;28;20045;-72
2023/12/23 03:26:04;;;;;;;8.90;1.80;;;;;;;;;;4987402;28;20725;-72
2023/12/23 03:28:30;;;;;;;6.53;1.83;;;;;;;;;;4987352;28;20528;-72
2023/12/23 03:30:56;;;;;;;9.57;1.63;;;;;;;;;;4987499;28;20050;-71
2023/12/23 03:33:22;;;;;;;8.27;1.58;;;;;;;;;;4987439;28;20042;-71
2023/12/23 03:35:48;;;;;;;3.65;1.42;;;;;;;;;;5005332;28;20793;-71
2023/12/23 03:38:14;;;;;;;8.48;2.10;;;;;;;;;;4987142;28;20125;-71
2023/12/23 03:40:40;;;;;;;7.72;2.15;;;;;;;;;;4987383;28;20176;-71
2023/12/23 03:43:06;;;;;;;8.10;2.05;;;;;;;;;;4987026;28;20658;-71
2023/12/23 03:45:32;;;;;;;5.63;1.83;;;;;;;;;;4987439;28;20045;-71
2023/12/23 03:47:58;;;;;;;6.55;1.67;;;;;;;;;;4970211;28;20053;-72
2023/12/23 03:50:24;;;;;;;6.95;1.65;;;;;;;;;;4986883;28;20150;-71
2023/12/23 03:52:50;;;;;;;5.55;1.40;;;;;;;;;;4986408;28;20050;-71
2023/12/23 03:55:16;;;;;;;4.20;1.33;;;;;;;;;;4988610;28;20065;-71
2023/12/23 03:57:44;;;;;;;4.68;1.40;;;;;;;;;;4987277;28;20093;-71
2023/12/23 04:00:10;;;;;;;5.88;1.45;;;;;;;;;;4986538;28;20038;-72
2023/12/23 04:02:36;;;;;;;6.10;1.35;;;;;;;;;;4986485;28;20045;-72
2023/12/23 04:05:03;;;;;;;6.35;1.30;;;;;;;;;;4982412;28;20782;-71
2023/12/23 04:07:29;;;;;;;7.03;1.20;;;;;;;;;;4985684;28;20042;-72
2023/12/23 04:09:55;;;;;;;5.63;1.20;;;;;;;;;;5003306;28;20069;-72
2023/12/23 04:12:23;;;;;;;3.47;0.90;;;;;;;;;;4985899;28;20045;-71
2023/12/23 04:14:49;;;;;;;3.03;1.23;;;;;;;;;;4969024;28;20054;-71
2023/12/23 04:17:15;;;;;;;3.13;1.20;;;;;;;;;;4985136;28;20064;-72
2023/12/23 04:19:43;;;;;;;6.10;1.27;;;;;;;;;;4980049;28;20120;-72
2023/12/23 04:22:14;;;;;;;3.90;1.20;;;;;;;;;;4969768;28;20050;-72
2023/12/23 04:24:40;;;;;;;5.40;1.25;;;;;;;;;;5003579;28;20037;-72
2023/12/23 04:27:06;;;;;;;5.30;1.50;;;;;;;;;;4985409;28;20394;-72
2023/12/23 04:29:32;;;;;;;2.55;1.13;;;;;;;;;;4969660;28;20046;-72
2023/12/23 04:31:58;;;;;;;2.35;1.10;;;;;;;;;;4969635;28;20056;-72
2023/12/23 04:34:24;;;;;;;2.30;1.10;;;;;;;;;;4985255;28;20042;-72
2023/12/23 04:36:50;;;;;;;3.30;1.27;;;;;;;;;;4984507;28;20053;-72
2023/12/23 04:39:16;;;;;;;2.28;0.90;;;;;;;;;;5003098;28;20041;-72
2023/12/23 04:41:47;;;;;;;2.95;0.80;;;;;;;;;;4985347;28;20038;-72
2023/12/23 04:44:16;;;;;;;4.13;1.30;;;;;;;;;;4985491;28;20527;-72
2023/12/23 04:46:43;;;;;;;3.55;1.13;;;;;;;;;;4985462;28;20056;-72
2023/12/23 04:49:09;;;;;;;1.70;1.20;;;;;;;;;;4985459;28;20131;-72
2023/12/23 04:51:37;;;;;;;2.78;1.83;;;;;;;;;;5003008;28;20045;-72
2023/12/23 04:54:03;;;;;;;1.17;0.95;;;;;;;;;;4985316;28;20042;-72
2023/12/23 04:56:29;;;;;;;2.88;1.17;;;;;;;;;;4981692;28;20327;-72
2023/12/23 04:58:56;;;;;;;2.45;1.05;;;;;;;;;;4985176;28;20048;-71
2023/12/23 05:01:24;;;;;;;1.05;0.90;;;;;;;;;;4968383;28;20151;-71
2023/12/23 05:03:50;;;;;;;1.70;1.00;;;;;;;;;;4984498;28;20048;-71
2023/12/23 05:06:16;;;;;;;1.92;0.85;;;;;;;;;;4968834;28;20137;-71
2023/12/23 05:08:42;;;;;;;1.70;0.80;;;;;;;;;;4985271;28;20049;-71
2023/12/23 05:11:08;;;;;;;2.05;0.85;;;;;;;;;;4985086;28;20061;-71
2023/12/23 05:13:34;;;;;;;0.77;0.70;;;;;;;;;;4984757;28;20050;-71
2023/12/23 05:16:00;;;;;;;1.25;0.90;;;;;;;;;;4968416;28;20054;-71
2023/12/23 05:18:26;;;;;;;1.00;0.80;;;;;;;;;;4978075;28;20086;-71
2023/12/23 05:20:52;;;;;;;0.82;0.77;;;;;;;;;;4999935;28;20145;-71
2023/12/23 05:23:18;;;;;;;1.33;0.88;;;;;;;;;;4986793;28;20053;-71
2023/12/23 05:25:44;;;;;;;3.00;1.63;;;;;;;;;;4985185;28;20045;-71
2023/12/23 05:28:12;;;;;;;2.45;1.38;;;;;;;;;;4986779;28;20053;-71
2023/12/23 05:30:38;;;;;;;7.60;2.40;;;;;;;;;;4964686;28;20065;-72
2023/12/23 05:33:05;;;;;;;8.93;3.50;;;;;;;;;;4981916;28;20802;-74
2023/12/23 05:35:31;;;;;;;20.60;4.10;;;;;;;;;;4999149;28;20579;-74
2023/12/23 05:37:57;;;;;;;17.80;4.35;;;;;;;;;;4980866;28;20144;-73
2023/12/23 05:40:23;;;;;;;20.02;4.70;;;;;;;;;;4999369;28;20048;-72
2023/12/23 05:42:49;;;;;;;14.70;4.03;;;;;;;;;;4999743;28;20754;-70
2023/12/23 05:45:15;;;;;;;20.42;4.90;;;;;;;;;;4979837;28;20038;-73
2023/12/23 05:47:43;;;;;;;20.17;4.53;;;;;;;;;;4980827;28;20046;-71
2023/12/23 05:50:10;;;;;;;27.15;4.55;;;;;;;;;;4984008;28;20127;-71
2023/12/23 05:52:36;;;;;;;18.33;3.88;;;;;;;;;;5001496;28;20923;-71
2023/12/23 05:55:02;;;;;;;22.55;5.18;;;;;;;;;;4985592;28;20058;-72
2023/12/23 05:57:28;;;;;;;15.18;4.38;;;;;;;;;;4980950;28;20045;-72
2023/12/23 05:59:55;;;;;;;21.00;3.92;;;;;;;;;;4985172;28;20092;-73
2023/12/23 06:02:21;;;;;;;19.05;4.85;;;;;;;;;;4989264;28;20568;-73
2023/12/23 06:04:47;;;;;;;14.15;3.47;;;;;;;;;;4985130;28;20053;-71
2023/12/23 06:07:14;;;;;;;21.15;4.68;;;;;;;;;;4998369;28;20038;-70
2023/12/23 06:09:40;;;;;;;21.65;4.65;;;;;;;;;;4985020;28;20050;-71
2023/12/23 06:12:06;;;;;;;20.23;4.53;;;;;;;;;;4984491;28;20041;-72
2023/12/23 06:14:32;;;;;;;27.02;4.60;;;;;;;;;;4981153;28;20061;-72
2023/12/23 06:16:58;;;;;;;23.80;4.30;;;;;;;;;;4981191;28;20058;-71
2023/12/23 06:19:24;;;;;;;21.77;4.75;;;;;;;;;;4981912;28;20043;-71
2023/12/23 06:21:51;;;;;;;28.75;4.95;;;;;;;;;;4980478;28;20540;-72
2023/12/23 06:24:17;;;;;;;32.67;5.38;;;;;;;;;;4981324;28;20038;-72
2023/12/23 06:26:43;;;;;;;24.25;4.43;;;;;;;;;;4978165;28;20056;-72
2023/12/23 06:29:09;;;;;;;29.73;5.13;;;;;;;;;;4983143;28;20049;-72
2023/12/23 06:31:35;;;;;;;29.50;5.70;;;;;;;;;;4978195;28;20050;-72
2023/12/23 06:34:01;;;;;;;26.85;5.63;;;;;;;;;;4980716;28;20077;-74
2023/12/23 06:36:27;;;;;;;33.53;5.10;;;;;;;;;;4980532;28;20137;-72
2023/12/23 06:38:53;;;;;;;28.05;5.68;;;;;;;;;;4978960;28;20056;-72
2023/12/23 06:41:20;;;;;;;27.80;5.55;;;;;;;;;;4981775;28;20050;-73
2023/12/23 06:43:46;;;;;;;27.70;5.35;;;;;;;;;;4976116;28;20050;-73
2023/12/23 06:46:12;;;;;;;20.55;4.97;;;;;;;;;;4984046;28;20053;-73
2023/12/23 06:48:39;;;;;;;21.92;5.50;;;;;;;;;;4980789;28;20528;-72
2023/12/23 06:51:06;;;;;;;24.98;4.75;;;;;;;;;;4959567;28;20050;-72
2023/12/23 06:53:32;;;;;;;22.77;4.72;;;;;;;;;;4981976;28;20409;-73
2023/12/23 06:55:58;;;;;;;27.73;5.97;;;;;;;;;;4983694;28;20049;-72
2023/12/23 06:58:28;;;;;;;20.48;4.70;;;;;;;;;;4981365;28;20414;-71
2023/12/23 07:00:54;;;;;;;27.27;5.88;;;;;;;;;;4976776;28;20125;-71
2023/12/23 07:03:20;;;;;;;23.10;3.50;;;;;;;;;;4980427;28;20038;-73
2023/12/23 07:05:46;;;;;;;25.65;4.80;;;;;;;;;;4978463;28;20050;-72
2023/12/23 07:08:12;;;;;;;21.38;5.00;;;;;;;;;;4980751;28;20058;-72
2023/12/23 07:10:38;;;;;;;16.27;3.92;;;;;;;;;;4979007;28;20057;-72
2023/12/23 07:13:04;;;;;;;26.35;4.70;;;;;;;;;;4979335;28;20042;-70
2023/12/23 07:15:30;;;;;;;27.88;3.97;;;;;;;;;;4982409;28;20149;-72
2023/12/23 07:17:56;;;;;;;32.70;5.70;;;;;;;;;;4979434;28;20060;-71
2023/12/23 07:20:22;;;;;;;18.77;4.15;;;;;;;;;;4990497;28;20129;-70
2023/12/23 07:22:48;;;;;;;15.40;3.97;;;;;;;;;;4979005;28;20412;-72
2023/12/23 07:25:14;;;;;;;26.00;5.82;;;;;;;;;;4975493;28;20533;-71
2023/12/23 07:27:40;;;;;;;32.95;5.22;;;;;;;;;;4976192;28;20060;-71
2023/12/23 07:30:06;;;;;;;26.05;5.35;;;;;;;;;;4976600;28;20045;-72
2023/12/23 07:32:32;;;;;;;21.27;4.43;;;;;;;;;;4974784;28;20084;-72
2023/12/23 07:34:59;;;;;;;21.83;4.05;;;;;;;;;;4995674;28;20069;-71
2023/12/23 07:37:25;;;;;;;22.00;4.88;;;;;;;;;;4995368;28;20719;-72
2023/12/23 07:39:51;;;;;;;25.08;4.55;;;;;;;;;;4976125;28;20041;-71
2023/12/23 07:42:17;;;;;;;22.63;4.15;;;;;;;;;;4971979;28;20093;-72
2023/12/23 07:44:43;;;;;;;20.35;4.38;;;;;;;;;;4972382;28;20120;-72
2023/12/23 07:47:12;;;;;;;22.92;4.82;;;;;;;;;;4974901;28;20059;-72
2023/12/23 07:49:38;;;;;;;22.17;4.55;;;;;;;;;;4977277;28;20741;-72
2023/12/23 07:52:05;;;;;;;17.15;4.25;;;;;;;;;;4974034;28;20060;-72
2023/12/23 07:54:31;;;;;;;25.90;4.22;;;;;;;;;;4975999;28;20058;-71
2023/12/23 07:56:57;;;;;;;26.45;5.07;;;;;;;;;;4965084;28;20851;-72
2023/12/23 07:59:23;;;;;;;22.27;4.10;;;;;;;;;;4969227;28;20153;-71
2023/12/23 08:01:49;;;;;;;23.75;4.72;;;;;;;;;;4977678;28;20042;-72
2023/12/23 08:04:15;;;;;;;19.45;4.38;;;;;;;;;;4981375;28;20041;-72
2023/12/23 08:06:42;;;;;;;15.52;3.67;;;;;;;;;;4975509;28;20049;-72
2023/12/23 08:09:08;;;;;;;29.33;4.05;;;;;;;;;;4975251;28;20093;-71
2023/12/23 08:11:35;;;;;;;23.73;4.40;;;;;;;;;;4966567;28;20077;-71
2023/12/23 08:14:02;;;;;;;16.33;4.30;;;;;;;;;;4964436;28;20061;-71
2023/12/23 08:16:28;;;;;;;25.30;5.20;;;;;;;;;;4998263;28;20058;-70
2023/12/23 08:18:54;;;;;;;23.08;5.15;;;;;;;;;;4979720;28;20054;-72
2023/12/23 08:21:21;;;;;;;20.75;3.88;;;;;;;;;;4983808;28;20476;-72
2023/12/23 08:23:47;;;;;;;27.98;5.97;;;;;;;;;;4981998;28;20092;-73
2023/12/23 08:26:13;;;;;;;23.02;4.90;;;;;;;;;;4964064;28;20156;-73
2023/12/23 08:28:39;;;;;;;20.02;4.28;;;;;;;;;;4960620;28;20142;-71
2023/12/23 08:31:05;;;;;;;23.90;4.40;;;;;;;;;;4984068;28;20053;-71
2023/12/23 08:33:33;;;;;;;25.02;3.90;;;;;;;;;;4987271;28;20486;-72
2023/12/23 08:35:59;;;;;;;18.83;3.63;;;;;;;;;;4985515;28;20070;-75
2023/12/23 08:38:25;;;;;;;21.67;3.75;;;;;;;;;;4986759;28;20600;-73
2023/12/23 08:40:51;;;;;;;24.60;4.35;;;;;;;;;;4998418;28;20053;-73
2023/12/23 08:43:17;;;;;;;15.15;4.60;;;;;;;;;;4982368;28;20803;-74
2023/12/23 08:45:43;;;;;;;20.67;4.60;;;;;;;;;;4990588;28;20053;-76
2023/12/23 08:48:09;;;;;;;21.98;4.45;;;;;;;;;;4985109;28;20776;-72
2023/12/23 08:50:35;;;;;;;27.15;4.32;;;;;;;;;;4984856;28;20046;-73
2023/12/23 08:53:02;;;;;;;17.92;3.75;;;;;;;;;;4986262;28;20049;-74
2023/12/23 08:55:28;;;;;;;13.30;4.40;;;;;;;;;;4984695;28;20137;-74
2023/12/23 08:57:55;;;;;;;19.00;3.78;;;;;;;;;;4983599;28;20508;-74
2023/12/23 09:00:21;;;;;;;21.08;3.30;;;;;;;;;;4984883;28;20125;-74
2023/12/23 09:02:47;;;;;;;7.50;1.90;;;;;;;;;;4985109;28;20634;-74
2023/12/23 09:05:13;;;;;;;11.02;2.92;;;;;;;;;;4964006;28;20061;-74
2023/12/23 09:07:39;;;;;;;11.52;3.50;;;;;;;;;;4984387;28;20064;-75
2023/12/23 09:10:07;;;;;;;10.05;2.92;;;;;;;;;;4982498;28;20046;-74
2023/12/23 09:12:35;;;;;;;12.00;3.05;;;;;;;;;;4989043;28;20089;-74
2023/12/23 09:15:01;;;;;;;20.25;2.85;;;;;;;;;;4997097;28;20084;-73
2023/12/23 09:17:27;;;;;;;10.38;2.58;;;;;;;;;;4981000;28;20433;-74
2023/12/23 09:19:53;;;;;;;13.98;3.13;;;;;;;;;;4989770;28;20543;-75
2023/12/23 09:22:19;;;;;;;13.50;2.45;;;;;;;;;;4985777;28;20038;-74
2023/12/23 09:24:45;;;;;;;15.10;3.67;;;;;;;;;;4989261;28;20042;-74
2023/12/23 09:27:12;;;;;;;21.63;3.70;;;;;;;;;;4988531;28;20055;-74
2023/12/23 09:29:38;;;;;;;18.80;3.55;;;;;;;;;;4970750;28;20054;-74
2023/12/23 09:32:04;;;;;;;22.35;4.15;;;;;;;;;;4989166;28;20061;-74
2023/12/23 09:34:30;;;;;;;15.95;3.65;;;;;;;;;;4988437;28;20041;-74
2023/12/23 09:36:56;;;;;;;23.05;4.15;;;;;;;;;;4987296;28;20046;-74
2023/12/23 09:39:22;;;;;;;24.48;3.60;;;;;;;;;;4986995;28;20057;-74
2023/12/23 09:41:48;;;;;;;24.75;3.22;;;;;;;;;;4989816;28;20050;-73
2023/12/23 09:44:14;;;;;;;26.17;4.18;;;;;;;;;;4990878;28;20080;-74
2023/12/23 09:46:40;;;;;;;23.25;3.08;;;;;;;;;;4988412;28;20125;-75
2023/12/23 09:49:06;;;;;;;22.30;3.90;;;;;;;;;;4989168;28;20112;-74
2023/12/23 09:51:33;;;;;;;23.17;4.05;;;;;;;;;;4988440;28;20037;-73
2023/12/23 09:54:02;;;;;;;18.55;4.45;;;;;;;;;;4987890;28;20520;-74
2023/12/23 09:56:29;;;;;;;23.77;3.92;;;;;;;;;;4989489;28;20056;-72
2023/12/23 09:58:55;;;;;;;22.58;3.97;;;;;;;;;;4985254;28;20165;-72
2023/12/23 10:01:21;;;;;;;20.27;4.78;;;;;;;;;;4986413;28;20107;-73
2023/12/23 10:03:47;;;;;;;14.68;3.25;;;;;;;;;;4988274;28;20048;-73
2023/12/23 10:06:15;;;;;;;18.77;3.38;;;;;;;;;;4988282;28;20054;-73
2023/12/23 10:08:41;;;;;;;19.40;3.80;;;;;;;;;;4993656;28;20120;-73
2023/12/23 10:11:07;;;;;;;20.92;3.42;;;;;;;;;;4986902;28;20053;-73
2023/12/23 10:13:34;;;;;;;16.00;4.25;;;;;;;;;;4987373;28;20069;-73
2023/12/23 10:16:01;;;;;;;13.73;3.60;;;;;;;;;;4985556;28;20055;-74
2023/12/23 10:18:27;;;;;;;19.40;3.83;;;;;;;;;;4979030;28;20046;-74
2023/12/23 10:20:53;;;;;;;17.35;3.67;;;;;;;;;;4988405;28;20047;-74
2023/12/23 10:23:19;;;;;;;22.70;3.78;;;;;;;;;;4982981;28;20399;-74
2023/12/23 10:25:45;;;;;;;15.35;4.40;;;;;;;;;;4982473;28;20077;-74
2023/12/23 10:28:11;;;;;;;13.25;3.60;;;;;;;;;;4987922;28;20054;-73
2023/12/23 10:30:44;;;;;;;13.95;3.15;;;;;;;;;;4984498;28;20065;-73
2023/12/23 10:33:12;;;;;;;23.88;4.25;;;;;;;;;;4984635;28;20042;-72
2023/12/23 10:35:45;;;;;;;15.70;3.50;;;;;;;;;;4986444;28;20088;-74
2023/12/23 10:38:14;;;;;;;18.27;3.83;;;;;;;;;;4999247;28;20046;-72
2023/12/23 10:40:43;;;;;;;23.02;4.13;;;;;;;;;;4985522;28;20042;-72
2023/12/23 10:43:10;;;;;;;16.98;3.97;;;;;;;;;;4982024;28;20046;-73
2023/12/23 10:45:37;;;;;;;14.57;2.58;;;;;;;;;;4982688;28;20573;-71
2023/12/23 10:48:04;;;;;;;19.75;3.33;;;;;;;;;;4982962;28;20077;-72
2023/12/23 10:50:31;;;;;;;17.02;3.58;;;;;;;;;;4976609;28;20046;-71
2023/12/23 10:52:58;;;;;;;16.08;3.25;;;;;;;;;;4978412;28;20056;-71
2023/12/23 10:55:24;;;;;;;16.92;3.08;;;;;;;;;;4979993;28;20058;-71
2023/12/23 10:57:52;;;;;;;24.95;3.83;;;;;;;;;;4980754;28;20485;-71
2023/12/23 11:00:18;;;;;;;12.75;3.13;;;;;;;;;;4982918;28;20057;-71
2023/12/23 11:02:45;;;;;;;14.52;3.55;;;;;;;;;;4980758;28;20042;-71
2023/12/23 11:05:12;;;;;;;11.05;2.65;;;;;;;;;;4983834;28;20402;-72
2023/12/23 11:07:41;;;;;;;12.77;3.05;;;;;;;;;;4985174;28;21304;-71
2023/12/23 11:10:07;;;;;;;14.73;2.92;;;;;;;;;;4973471;28;20049;-70
2023/12/23 11:12:34;;;;;;;20.80;3.50;;;;;;;;;;4976077;28;20050;-70
2023/12/23 11:15:00;;;;;;;13.88;2.88;;;;;;;;;;4985703;28;20529;-70
2023/12/23 11:17:27;;;;;;;19.80;3.13;;;;;;;;;;5002564;28;20092;-71
2023/12/23 11:20:01;;;;;;;14.25;3.00;;;;;;;;;;4985667;28;20124;-70
2023/12/23 11:22:30;;;;;;;25.67;4.22;;;;;;;;;;5003786;28;20704;-70
2023/12/23 11:24:56;;;;;;;17.02;3.50;;;;;;;;;;4985260;28;20154;-70
2023/12/23 11:27:29;;;;;;;16.40;3.70;;;;;;;;;;4983703;28;20046;-70
2023/12/23 11:29:55;;;;;;;19.00;3.15;;;;;;;;;;4982630;28;20153;-72
2023/12/23 11:32:25;;;;;;;13.40;3.30;;;;;;;;;;4981174;28;20145;-70
2023/12/23 11:34:52;;;;;;;16.88;2.90;;;;;;;;;;4999688;28;20042;-71
2023/12/23 11:37:18;;;;;;;15.02;3.58;;;;;;;;;;4984999;28;20507;-72
2023/12/23 11:39:44;;;;;;;15.20;3.60;;;;;;;;;;4979250;28;20113;-73
2023/12/23 11:42:13;;;;;;;13.27;3.25;;;;;;;;;;4968111;28;20124;-71
2023/12/23 11:44:40;;;;;;;15.10;4.03;;;;;;;;;;4982105;28;20048;-72
2023/12/23 11:47:06;;;;;;;11.55;3.00;;;;;;;;;;5000667;28;20100;-71
2023/12/23 11:49:32;;;;;;;23.45;3.42;;;;;;;;;;4985697;28;20053;-71
2023/12/23 11:51:58;;;;;;;14.50;2.63;;;;;;;;;;4982612;28;20054;-72
2023/12/23 11:54:24;;;;;;;17.83;2.97;;;;;;;;;;4983247;28;20054;-72
2023/12/23 11:56:50;;;;;;;17.98;3.67;;;;;;;;;;4983000;28;20050;-70
2023/12/23 11:59:16;;;;;;;13.60;3.50;;;;;;;;;;4984024;28;20061;-71
2023/12/23 12:01:42;;;;;;;18.38;3.33;;;;;;;;;;4962734;28;20085;-72
2023/12/23 12:04:09;;;;;;;15.65;2.83;;;;;;;;;;4983411;28;20054;-71
2023/12/23 12:06:35;;;;;;;16.77;3.22;;;;;;;;;;4982786;28;20130;-71
2023/12/23 12:09:01;;;;;;;13.77;4.05;;;;;;;;;;5002595;28;20049;-72
2023/12/23 12:11:28;;;;;;;10.80;3.17;;;;;;;;;;4985021;28;20515;-72
2023/12/23 12:13:59;;;;;;;17.73;4.78;;;;;;;;;;4986300;28;20045;-70
2023/12/23 12:16:25;;;;;;;16.83;3.03;;;;;;;;;;5003159;28;20476;-70
2023/12/23 12:18:51;;;;;;;14.73;3.25;;;;;;;;;;4961467;28;20074;-72
2023/12/23 12:21:17;;;;;;;20.05;3.83;;;;;;;;;;4963327;28;20155;-72
2023/12/23 12:23:43;;;;;;;15.52;3.28;;;;;;;;;;4981066;28;20119;-72
2023/12/23 12:26:09;;;;;;;17.35;3.85;;;;;;;;;;4980598;28;20057;-72
2023/12/23 12:28:35;;;;;;;13.07;3.55;;;;;;;;;;4979329;28;20732;-71
2023/12/23 12:31:08;;;;;;;16.35;3.08;;;;;;;;;;4983202;28;20062;-73
2023/12/23 12:33:35;;;;;;;11.18;3.78;;;;;;;;;;4984996;28;20587;-71
2023/12/23 12:36:01;;;;;;;13.65;4.78;;;;;;;;;;4985116;28;20053;-72
2023/12/23 12:38:27;;;;;;;18.70;3.38;;;;;;;;;;4979566;28;20042;-70
2023/12/23 12:40:54;;;;;;;18.75;3.40;;;;;;;;;;4981278;28;20042;-72
2023/12/23 12:43:29;;;;;;;18.88;3.60;;;;;;;;;;4997846;28;20037;-71
2023/12/23 12:45:57;;;;;;;16.85;2.97;;;;;;;;;;5001355;28;20049;-71
2023/12/23 12:48:23;;;;;;;22.08;3.60;;;;;;;;;;4994306;28;20130;-73
2023/12/23 12:50:53;;;;;;;11.75;3.08;;;;;;;;;;4978648;28;20049;-72
2023/12/23 12:53:19;;;;;;;23.58;3.92;;;;;;;;;;4980277;28;20053;-72
2023/12/23 12:55:45;;;;;;;12.65;2.80;;;;;;;;;;4962269;28;20133;-73
2023/12/23 12:58:11;;;;;;;17.17;3.65;;;;;;;;;;4977321;28;20073;-71
2023/12/23 13:00:37;;;;;;;16.33;3.58;;;;;;;;;;4999195;28;20338;-72
2023/12/23 13:03:04;;;;;;;17.27;4.13;;;;;;;;;;4981848;28;20103;-72
2023/12/23 13:05:30;;;;;;;10.88;2.50;;;;;;;;;;4981271;28;20112;-71
2023/12/23 13:07:56;;;;;;;22.27;3.20;;;;;;;;;;4996830;28;20214;-71
2023/12/23 13:10:22;;;;;;;23.48;4.13;;;;;;;;;;4978077;28;20045;-70
2023/12/23 13:12:49;;;;;;;16.65;4.10;;;;;;;;;;4985104;28;20057;-71
2023/12/23 13:15:15;;;;;;;17.25;4.15;;;;;;;;;;4959185;28;20057;-72
2023/12/23 13:17:41;;;;;;;10.82;1.95;;;;;;;;;;4970403;28;20054;-70
2023/12/23 13:20:09;;;;;;;12.13;2.70;;;;;;;;;;4957290;28;20042;-70
2023/12/23 13:22:36;;;;;;;18.08;3.00;;;;;;;;;;4973742;28;20045;-70
2023/12/23 13:25:02;;;;;;;9.05;2.75;;;;;;;;;;4975158;28;20073;-72
2023/12/23 13:27:28;;;;;;;8.07;2.63;;;;;;;;;;4977693;28;20647;-70
2023/12/23 13:29:54;;;;;;;11.82;3.00;;;;;;;;;;4979587;28;20038;-73
2023/12/23 13:32:20;;;;;;;17.42;3.45;;;;;;;;;;4985183;28;20104;-72
2023/12/23 13:34:47;;;;;;;13.02;3.03;;;;;;;;;;4978283;28;20049;-73
2023/12/23 13:37:13;;;;;;;11.68;2.35;;;;;;;;;;4964018;28;20050;-72
2023/12/23 13:39:39;;;;;;;11.35;3.15;;;;;;;;;;4975743;28;20486;-72
2023/12/23 13:42:06;;;;;;;14.20;3.17;;;;;;;;;;4975636;28;20046;-71
2023/12/23 13:44:34;;;;;;;14.85;2.22;;;;;;;;;;4970757;28;20038;-68
2023/12/23 13:47:02;;;;;;;16.83;3.90;;;;;;;;;;4974077;28;20053;-70
2023/12/23 13:49:28;;;;;;;12.27;3.35;;;;;;;;;;4977507;28;20052;-71
2023/12/23 13:51:54;;;;;;;21.17;4.38;;;;;;;;;;4975400;28;20042;-71
2023/12/23 13:54:20;;;;;;;17.55;3.35;;;;;;;;;;4973246;28;20053;-71
2023/12/23 13:56:50;;;;;;;18.67;3.35;;;;;;;;;;4950858;28;20070;-71
2023/12/23 13:59:16;;;;;;;17.48;3.70;;;;;;;;;;4973628;28;20050;-70
2023/12/23 14:01:42;;;;;;;15.35;3.38;;;;;;;;;;4971313;28;20073;-69
2023/12/23 14:04:08;;;;;;;14.18;3.33;;;;;;;;;;4975790;28;20054;-69
2023/12/23 14:06:34;;;;;;;19.10;3.10;;;;;;;;;;4974595;28;20078;-70
2023/12/23 14:09:00;;;;;;;20.23;3.15;;;;;;;;;;4975294;28;20081;-69
2023/12/23 14:11:26;;;;;;;18.75;3.13;;;;;;;;;;4976217;28;20081;-70
2023/12/23 14:13:52;;;;;;;14.38;3.20;;;;;;;;;;4960749;28;20934;-70
2023/12/23 14:16:18;;;;;;;11.77;2.80;;;;;;;;;;4976868;28;20054;-70
2023/12/23 14:18:44;;;;;;;18.38;4.00;;;;;;;;;;4977950;28;20042;-69
2023/12/23 14:21:10;;;;;;;16.98;3.13;;;;;;;;;;4977417;28;20137;-72
2023/12/23 14:23:36;;;;;;;17.23;3.28;;;;;;;;;;4977025;28;20573;-71
2023/12/23 14:26:02;;;;;;;14.63;3.33;;;;;;;;;;4975497;28;20055;-70
2023/12/23 14:28:28;;;;;;;18.20;3.67;;;;;;;;;;4977126;28;21389;-69